M I D A S
Marine Information and Data Acquisition System
Tripno 873 of the Zeeleeuw from 2005-03-30 06:33:14 to 2005-03-30 12:54:34
Back to CruiseResearch ActivitiesStationsMapUnderway DataData graphs

EquipmentUnitsComment
TimeDGPSUTC
LatitudeDGPSDM.mWGS84
LongitudeDGPSDM.mWGS84
HeadingGyrodeg 
SOGDGPSknotsSpeed over ground
COGDGPSdegCourse over ground
DepthEcho soundermeters200 kHz
Missing or incorrect values are displayed as -999
Navigation data collected by the RV Zeeleeuw from 2005-03-30 06:33:59 to 2005-03-30 13:01:34
                                                                                    Next 1000 lines
Time Latitude Longitude Heading SOG COG Depth
2005-03-30 06:34:09 51°13.596 2°56.096 114.2 1.2 295 7.2
2005-03-30 06:34:14 51°13.598 2°56.093 114.1 1.2 295 7.3
2005-03-30 06:34:19 51°13.599 2°56.088 114.1 1.2 295 7.5
2005-03-30 06:34:24 51°13.6 2°56.083 114.4 2.3 295 -999
2005-03-30 06:34:30 51°13.602 2°56.077 114.7 2.3 295 -999
2005-03-30 06:34:34 51°13.603 2°56.072 114.9 2.3 295 -999
2005-03-30 06:34:40 51°13.605 2°56.065 115.1 2.3 295 -999
2005-03-30 06:34:45 51°13.607 2°56.059 115.1 2.3 295 -999
2005-03-30 06:34:50 51°13.609 2°56.052 115 3.2 294 -999
2005-03-30 06:34:54 51°13.611 2°56.045 114.8 3.2 294 -999
2005-03-30 06:35:00 51°13.613 2°56.036 114.8 3.7 293 -999
2005-03-30 06:35:05 51°13.615 2°56.029 114.8 3.7 293 -999
2005-03-30 06:35:10 51°13.617 2°56.021 115 4 292 -999
2005-03-30 06:35:14 51°13.619 2°56.013 115.4 4 292 -999
2005-03-30 06:35:20 51°13.622 2°56.004 116.1 4.2 292 -999
2005-03-30 06:35:25 51°13.624 2°55.995 117.3 4.3 294 -999
2005-03-30 06:35:29 51°13.626 2°55.986 119.2 4.4 294 -999
2005-03-30 06:35:35 51°13.63 2°55.976 120.6 4.7 297 -999
2005-03-30 06:35:40 51°13.633 2°55.967 122.5 4.9 299 -999
2005-03-30 06:35:45 51°13.637 2°55.957 123.9 4.9 300 -999
2005-03-30 06:35:49 51°13.639 2°55.95 125.1 5 302 -999
2005-03-30 06:35:55 51°13.644 2°55.938 126 5 302 -999
2005-03-30 06:35:59 51°13.648 2°55.93 127.2 5 302 -999
2005-03-30 06:36:05 51°13.653 2°55.918 127.7 5.1 304 -999
2005-03-30 06:36:09 51°13.656 2°55.912 127.6 5.2 305 -999
2005-03-30 06:36:14 51°13.66 2°55.901 126.8 5.2 305 -999
2005-03-30 06:36:20 51°13.664 2°55.891 125.8 5.2 304 -999
2005-03-30 06:36:24 51°13.668 2°55.882 125 5.1 303 -999
2005-03-30 06:36:30 51°13.672 2°55.871 124.1 5 303 -999
2005-03-30 06:36:34 51°13.675 2°55.864 123 5 302 -999
2005-03-30 06:36:40 51°13.679 2°55.853 121.8 5 301 -999
2005-03-30 06:36:45 51°13.683 2°55.844 120.3 4.9 300 -999
2005-03-30 06:36:50 51°13.686 2°55.834 118.6 4.9 298 -999
2005-03-30 06:36:55 51°13.689 2°55.825 116.7 4.9 297 -999
2005-03-30 06:37:00 51°13.691 2°55.815 114.7 4.8 295 -999
2005-03-30 06:37:05 51°13.694 2°55.805 112.6 4.8 295 -999
2005-03-30 06:37:09 51°13.696 2°55.796 110.6 4.8 292 -999
2005-03-30 06:37:14 51°13.698 2°55.787 108.1 4.7 290 -999
2005-03-30 06:37:20 51°13.7 2°55.776 106.7 4.5 290 -999
2005-03-30 06:37:25 51°13.701 2°55.77 105.1 3.7 288 -999
2005-03-30 06:37:30 51°13.702 2°55.765 102.4 2.7 287 -999
2005-03-30 06:37:35 51°13.703 2°55.761 98.7 2.4 289 -999
2005-03-30 06:37:40 51°13.704 2°55.759 94.3 1.4 292 6
2005-03-30 06:37:45 51°13.705 2°55.759 89.2 1.4 292 11.7
2005-03-30 06:37:49 51°13.706 2°55.759 84.4 1.4 292 11.7
2005-03-30 06:37:55 51°13.707 2°55.761 77.3 0.9 25 -999
2005-03-30 06:38:00 51°13.709 2°55.762 69.4 1.2 28 11.6
2005-03-30 06:38:05 51°13.709 2°55.762 62.8 0.9 21 -999
2005-03-30 06:38:09 51°13.71 2°55.762 58 0.7 19 -999
2005-03-30 06:38:15 51°13.71 2°55.761 54.3 0.6 328 -999
2005-03-30 06:38:20 51°13.71 2°55.759 51.3 0.5 289 -999
2005-03-30 06:38:25 51°13.709 2°55.756 49 0.9 263 -999
2005-03-30 06:38:29 51°13.709 2°55.754 47.1 1.3 245 11.6
2005-03-30 06:38:34 51°13.707 2°55.75 45.7 1.5 243 11.7
2005-03-30 06:38:39 51°13.706 2°55.747 44.4 1.5 243 -999
2005-03-30 06:38:45 51°13.704 2°55.743 42.5 1.8 236 -999
2005-03-30 06:38:50 51°13.703 2°55.741 41.2 1.7 233 -999
2005-03-30 06:38:54 51°13.704 2°55.74 39.5 1.1 245 -999
2005-03-30 06:38:59 51°13.704 2°55.739 35.2 0.5 306 -999
2005-03-30 06:39:05 51°13.707 2°55.739 28.6 0.5 306 -999
2005-03-30 06:39:10 51°13.71 2°55.739 21.1 1.4 357 -999
2005-03-30 06:39:14 51°13.713 2°55.738 13.2 1.4 357 -999
2005-03-30 06:39:20 51°13.717 2°55.736 5.2 2.8 352 -999
2005-03-30 06:39:24 51°13.721 2°55.734 355.6 3.3 345 -999
2005-03-30 06:39:30 51°13.727 2°55.73 349.1 3.7 341 -999
2005-03-30 06:39:34 51°13.732 2°55.726 341.5 4.2 334 10.7
2005-03-30 06:39:39 51°13.737 2°55.721 336.7 4.6 330 10.3
2005-03-30 06:39:44 51°13.743 2°55.715 334.3 4.8 331 9.8
2005-03-30 06:39:49 51°13.748 2°55.71 332.7 4.8 331 9.7
2005-03-30 06:39:54 51°13.755 2°55.703 331.8 4.8 331 9.7
2005-03-30 06:40:00 51°13.762 2°55.696 331.6 5.5 328 9.8
2005-03-30 06:40:04 51°13.768 2°55.69 331.9 5.5 328 9.9
2005-03-30 06:40:09 51°13.775 2°55.684 332.3 5.5 328 9.9
2005-03-30 06:40:14 51°13.783 2°55.676 332.7 5.5 328 9.9
2005-03-30 06:40:20 51°13.792 2°55.668 332.9 6.7 330 9.9
2005-03-30 06:40:25 51°13.8 2°55.66 332.9 6.7 330 10.1
2005-03-30 06:40:29 51°13.807 2°55.653 333.2 7 330 10
2005-03-30 06:40:34 51°13.817 2°55.644 333.7 7.2 330 10.3
2005-03-30 06:40:39 51°13.825 2°55.637 334 7.4 331 10.4
2005-03-30 06:40:45 51°13.836 2°55.628 334.4 7.5 331 10.4
2005-03-30 06:40:49 51°13.844 2°55.621 335.3 7.8 332 10.3
2005-03-30 06:40:55 51°13.856 2°55.611 335.9 7.8 333 10.3
2005-03-30 06:40:58 51°13.863 2°55.606 336.2 7.8 333 10.2
2005-03-30 06:41:05 51°13.876 2°55.595 336.8 7.8 333 10
2005-03-30 06:41:09 51°13.884 2°55.589 338.5 8.2 335 10
2005-03-30 06:41:14 51°13.896 2°55.581 339.6 8.2 335 10
2005-03-30 06:41:20 51°13.907 2°55.573 339.7 8.3 336 10
2005-03-30 06:41:24 51°13.917 2°55.566 339.7 8.3 336 9.8
2005-03-30 06:41:30 51°13.929 2°55.558 340.1 8.3 336 10
2005-03-30 06:41:34 51°13.938 2°55.551 340.1 8.4 336 9.9
2005-03-30 06:41:38 51°13.947 2°55.545 340.1 8.5 336 10
2005-03-30 06:41:44 51°13.96 2°55.536 339.7 8.5 336 10
2005-03-30 06:41:49 51°13.97 2°55.529 339.6 8.5 336 9.9
2005-03-30 06:41:54 51°13.981 2°55.521 339.6 8.5 336 10
2005-03-30 06:41:58 51°13.99 2°55.514 339.7 8.6 336 9.9
2005-03-30 06:42:05 51°14.004 2°55.504 339.6 8.6 336 10
2005-03-30 06:42:09 51°14.014 2°55.497 339.6 8.6 336 9.9
2005-03-30 06:42:14 51°14.025 2°55.489 339.7 8.6 336 9.7
2005-03-30 06:42:19 51°14.036 2°55.481 339.8 8.6 336 9.6
2005-03-30 06:42:25 51°14.048 2°55.473 339.9 8.6 336 9.6
2005-03-30 06:42:29 51°14.056 2°55.466 340 8.6 336 9.5
2005-03-30 06:42:34 51°14.068 2°55.457 339.9 8.6 336 9.6
2005-03-30 06:42:38 51°14.077 2°55.451 339.6 8.6 336 9.6
2005-03-30 06:42:45 51°14.091 2°55.441 340.4 8.6 337 9.8
2005-03-30 06:42:49 51°14.101 2°55.434 340.8 8.8 337 9.7
2005-03-30 06:42:54 51°14.112 2°55.425 340.4 8.9 336 9.7
2005-03-30 06:42:59 51°14.123 2°55.417 339.5 9.4 335 10
2005-03-30 06:43:05 51°14.137 2°55.406 338.8 9.6 334 10
2005-03-30 06:43:09 51°14.148 2°55.396 338.1 9.9 333 10.2
2005-03-30 06:43:14 51°14.161 2°55.386 337.4 10 332 10.3
2005-03-30 06:43:20 51°14.175 2°55.372 336.1 10.1 331 -999
2005-03-30 06:43:24 51°14.185 2°55.362 334.5 10.3 329 10.3
2005-03-30 06:43:28 51°14.195 2°55.353 333.6 10.4 328 10.3
2005-03-30 06:43:34 51°14.21 2°55.337 332.1 10.5 326 10.3
2005-03-30 06:43:39 51°14.222 2°55.322 330.2 10.5 326 10.8
2005-03-30 06:43:45 51°14.234 2°55.306 328 10.5 326 10.8
2005-03-30 06:43:50 51°14.245 2°55.29 325.8 10.7 319 -999
2005-03-30 06:43:54 51°14.255 2°55.275 323.6 10.8 317 10.7
2005-03-30 06:43:59 51°14.265 2°55.258 321.1 10.8 317 10.2
2005-03-30 06:44:04 51°14.275 2°55.24 318.6 10.8 313 10.4
2005-03-30 06:44:09 51°14.285 2°55.222 316.5 10.8 313 10.3
2005-03-30 06:44:14 51°14.295 2°55.203 315.5 11 310 10.2
2005-03-30 06:44:19 51°14.304 2°55.183 314.2 11 310 10
2005-03-30 06:44:25 51°14.314 2°55.161 312.4 11 310 10.5
2005-03-30 06:44:29 51°14.323 2°55.143 310.9 11.4 305 10.8
2005-03-30 06:44:34 51°14.332 2°55.122 309.7 11.5 305 10.6
2005-03-30 06:44:39 51°14.341 2°55.1 309.4 11.5 305 10.4
2005-03-30 06:44:45 51°14.351 2°55.077 308.6 11.5 305 10.6
2005-03-30 06:44:49 51°14.36 2°55.057 308.3 11.5 305 10
2005-03-30 06:44:54 51°14.369 2°55.035 308.2 11.9 304 10.3
2005-03-30 06:44:59 51°14.377 2°55.015 308.2 12 305 10.3
2005-03-30 06:45:04 51°14.388 2°54.992 309.3 12 305 10.3
2005-03-30 06:45:09 51°14.397 2°54.972 310.4 12 305 10.4
2005-03-30 06:45:14 51°14.409 2°54.948 312.1 12 305 10.4
2005-03-30 06:45:19 51°14.422 2°54.928 314.4 12.5 310 10.5
2005-03-30 06:45:25 51°14.436 2°54.907 318.6 12.5 310 10.6
2005-03-30 06:45:29 51°14.449 2°54.891 322.7 12.5 310 10.6
2005-03-30 06:45:34 51°14.463 2°54.876 327.1 12.8 323 10.5
2005-03-30 06:45:39 51°14.478 2°54.863 330.9 12.8 329 10.5
2005-03-30 06:45:45 51°14.496 2°54.847 336.7 12.9 332 10.1
2005-03-30 06:45:50 51°14.512 2°54.834 338.7 12.9 332 10.1
2005-03-30 06:45:54 51°14.527 2°54.823 340.4 13 333 10.2
2005-03-30 06:45:59 51°14.544 2°54.81 341.6 13 333 10.1
2005-03-30 06:46:05 51°14.562 2°54.796 342.2 13.3 334 9.9
2005-03-30 06:46:10 51°14.579 2°54.784 342.6 13.3 335 9.8
2005-03-30 06:46:14 51°14.594 2°54.773 342.9 13.4 335 9.7
2005-03-30 06:46:20 51°14.613 2°54.759 343.1 13.4 335 9.6
2005-03-30 06:46:25 51°14.629 2°54.746 343.3 13.4 335 9.6
2005-03-30 06:46:29 51°14.643 2°54.735 343.3 13.4 335 9.6
2005-03-30 06:46:35 51°14.663 2°54.719 342.3 13.5 333 9.5
2005-03-30 06:46:40 51°14.679 2°54.705 341.2 13.6 333 9.5
2005-03-30 06:46:44 51°14.694 2°54.692 340.7 13.6 333 9.6
2005-03-30 06:46:49 51°14.711 2°54.677 340.1 13.6 332 9.6
2005-03-30 06:46:54 51°14.728 2°54.663 339.6 13.7 331 9.4
2005-03-30 06:46:59 51°14.745 2°54.648 339.5 13.7 331 9.3
2005-03-30 06:47:05 51°14.763 2°54.633 339.5 13.7 331 9.6
2005-03-30 06:47:09 51°14.777 2°54.622 339.5 13.7 331 9.4
2005-03-30 06:47:14 51°14.796 2°54.606 340 13.8 333 9.5
2005-03-30 06:47:19 51°14.813 2°54.593 340.3 13.8 333 9.6
2005-03-30 06:47:25 51°14.832 2°54.578 340.5 13.8 333 9.3
2005-03-30 06:47:29 51°14.845 2°54.567 340.8 13.8 333 9.2
2005-03-30 06:47:34 51°14.864 2°54.552 340.9 13.8 333 9.3
2005-03-30 06:47:39 51°14.881 2°54.538 340.7 13.8 333 9.3
2005-03-30 06:47:44 51°14.898 2°54.524 340.4 13.7 333 9.1
2005-03-30 06:47:48 51°14.912 2°54.513 340.1 13.8 333 9.2
2005-03-30 06:47:54 51°14.932 2°54.496 340.1 13.8 333 9
2005-03-30 06:48:00 51°14.951 2°54.481 339.9 13.8 333 8.9
2005-03-30 06:48:04 51°14.966 2°54.468 339.8 13.8 333 8.8
2005-03-30 06:48:09 51°14.981 2°54.456 339.9 13.8 333 8.6
2005-03-30 06:48:14 51°15 2°54.442 340.4 13.6 334 8.5
2005-03-30 06:48:19 51°15.015 2°54.43 340.9 13.5 334 8.4
2005-03-30 06:48:24 51°15.033 2°54.416 341.1 13.5 334 8.4
2005-03-30 06:48:29 51°15.048 2°54.404 340.8 13.5 334 8.4
2005-03-30 06:48:34 51°15.067 2°54.388 340.4 13.5 333 8.4
2005-03-30 06:48:39 51°15.083 2°54.375 339.5 13.6 332 8.5
2005-03-30 06:48:45 51°15.102 2°54.358 338.6 13.6 332 8.4
2005-03-30 06:48:49 51°15.117 2°54.344 338 13.7 331 8.4
2005-03-30 06:48:54 51°15.133 2°54.33 337.1 13.7 330 8.6
2005-03-30 06:48:59 51°15.15 2°54.314 336.4 13.7 330 8.5
2005-03-30 06:49:05 51°15.168 2°54.297 336.1 13.7 330 8.7
2005-03-30 06:49:09 51°15.181 2°54.285 336.1 13.7 330 8.7
2005-03-30 06:49:14 51°15.199 2°54.269 336.1 13.7 330 8.8
2005-03-30 06:49:19 51°15.217 2°54.254 336.7 13.9 332 8.8
2005-03-30 06:49:25 51°15.236 2°54.239 337.9 13.9 332 8.8
2005-03-30 06:49:29 51°15.249 2°54.228 338.6 13.9 332 8.8
2005-03-30 06:49:34 51°15.268 2°54.213 339.5 13.9 332 8.9
2005-03-30 06:49:39 51°15.286 2°54.2 339.9 13.9 335 9
2005-03-30 06:49:45 51°15.305 2°54.185 340.5 13.9 334 9
2005-03-30 06:49:49 51°15.321 2°54.173 340.8 13.9 335 9.1
2005-03-30 06:49:54 51°15.338 2°54.159 340.9 13.9 335 9.2
2005-03-30 06:49:59 51°15.355 2°54.145 340.4 13.9 335 9.2
2005-03-30 06:50:05 51°15.374 2°54.129 339.5 13.9 332 9.4
2005-03-30 06:50:09 51°15.387 2°54.117 338.9 13.9 332 9.4
2005-03-30 06:50:14 51°15.406 2°54.101 338.3 13.9 332 9.4
2005-03-30 06:50:19 51°15.423 2°54.086 337.9 13.9 332 9.5
2005-03-30 06:50:24 51°15.44 2°54.071 338 14 331 9.6
2005-03-30 06:50:29 51°15.457 2°54.056 338 14 331 9.9
2005-03-30 06:50:34 51°15.474 2°54.042 338.5 14 331 9.7
2005-03-30 06:50:38 51°15.488 2°54.03 338.8 14 332 9.8
2005-03-30 06:50:44 51°15.509 2°54.012 339 14 332 9.8
2005-03-30 06:50:48 51°15.522 2°54.001 339.1 14 332 9.9
2005-03-30 06:50:54 51°15.543 2°53.983 339.4 14 332 10
2005-03-30 06:50:59 51°15.558 2°53.97 339.4 13.9 333 10.1
2005-03-30 06:51:04 51°15.577 2°53.955 339.6 13.9 333 10.1
2005-03-30 06:51:09 51°15.592 2°53.942 339.6 13.9 333 10.3
2005-03-30 06:51:14 51°15.611 2°53.926 339.5 13.9 333 10.3
2005-03-30 06:51:20 51°15.63 2°53.91 339.2 13.9 332 10.3
2005-03-30 06:51:24 51°15.645 2°53.897 339 13.9 332 10.4
2005-03-30 06:51:29 51°15.66 2°53.884 339 13.9 332 10.4
2005-03-30 06:51:34 51°15.679 2°53.868 339.1 13.9 332 10.4
2005-03-30 06:51:40 51°15.697 2°53.852 339.1 13.8 332 10.5
2005-03-30 06:51:45 51°15.714 2°53.838 339.2 13.8 332 10.7
2005-03-30 06:51:49 51°15.729 2°53.825 339 13.7 332 10.6
2005-03-30 06:51:54 51°15.745 2°53.812 338.9 13.7 332 10.7
2005-03-30 06:51:59 51°15.763 2°53.797 339.1 13.8 333 10.9
2005-03-30 06:52:05 51°15.782 2°53.781 339.4 13.8 333 10.8
2005-03-30 06:52:08 51°15.793 2°53.772 339.5 13.7 332 10.8
2005-03-30 06:52:14 51°15.813 2°53.754 339.2 13.7 332 11
2005-03-30 06:52:19 51°15.83 2°53.74 338.9 13.7 332 11
2005-03-30 06:52:25 51°15.848 2°53.724 338.9 13.7 332 11
2005-03-30 06:52:29 51°15.864 2°53.712 338.7 13.7 332 11.1
2005-03-30 06:52:34 51°15.88 2°53.698 338.9 13.7 332 11
2005-03-30 06:52:39 51°15.897 2°53.684 339 13.7 332 11
2005-03-30 06:52:44 51°15.914 2°53.67 339.1 13.7 332 11.1
2005-03-30 06:52:49 51°15.931 2°53.655 339.3 13.7 332 11.1
2005-03-30 06:52:54 51°15.948 2°53.641 339.2 13.7 332 11.3
2005-03-30 06:52:59 51°15.965 2°53.627 339.1 13.7 332 11.2
2005-03-30 06:53:05 51°15.983 2°53.611 339 13.7 332 11.2
2005-03-30 06:53:09 51°15.996 2°53.599 338.7 13.7 332 11.3
2005-03-30 06:53:14 51°16.015 2°53.584 338.7 13.7 332 11.2
2005-03-30 06:53:18 51°16.029 2°53.572 338.9 13.8 333 11.3
2005-03-30 06:53:24 51°16.049 2°53.556 339.3 13.8 333 11.4
2005-03-30 06:53:29 51°16.064 2°53.543 339.5 13.8 333 11.4
2005-03-30 06:53:34 51°16.083 2°53.528 339.6 13.7 333 11.4
2005-03-30 06:53:40 51°16.101 2°53.513 339.6 13.7 333 11.4
2005-03-30 06:53:44 51°16.116 2°53.5 339.4 13.7 333 11.4
2005-03-30 06:53:49 51°16.133 2°53.486 338.9 13.7 333 11.4
2005-03-30 06:53:54 51°16.15 2°53.471 338.9 13.8 332 11.5
2005-03-30 06:53:58 51°16.164 2°53.46 338.9 13.8 332 11.6
2005-03-30 06:54:04 51°16.184 2°53.443 339.2 13.8 333 11.6
2005-03-30 06:54:08 51°16.198 2°53.432 339.4 13.8 333 11.5
2005-03-30 06:54:14 51°16.218 2°53.415 339.2 13.8 333 11.7
2005-03-30 06:54:19 51°16.235 2°53.401 339 13.8 332 11.7
2005-03-30 06:54:25 51°16.254 2°53.385 338.9 13.9 332 11.8
2005-03-30 06:54:28 51°16.266 2°53.375 338.7 13.9 332 11.8
2005-03-30 06:54:34 51°16.286 2°53.358 338.9 13.9 332 11.7
2005-03-30 06:54:39 51°16.302 2°53.345 339.1 13.9 333 11.8
2005-03-30 06:54:45 51°16.322 2°53.329 339.3 13.9 333 11.8
2005-03-30 06:54:49 51°16.338 2°53.316 339.5 13.9 333 11.8
2005-03-30 06:54:54 51°16.355 2°53.302 339.6 13.9 333 12
2005-03-30 06:54:59 51°16.371 2°53.289 339.4 13.9 333 11.9
2005-03-30 06:55:05 51°16.391 2°53.273 339.3 13.9 333 12
2005-03-30 06:55:10 51°16.408 2°53.258 339.1 13.9 333 11.9
2005-03-30 06:55:15 51°16.426 2°53.244 339.1 13.9 333 12
2005-03-30 06:55:19 51°16.441 2°53.231 339 13.9 332 12.1
2005-03-30 06:55:24 51°16.458 2°53.217 339 13.9 333 12
2005-03-30 06:55:29 51°16.473 2°53.205 338.9 13.9 332 11.9
2005-03-30 06:55:35 51°16.494 2°53.187 339.1 13.9 332 11.9
2005-03-30 06:55:38 51°16.506 2°53.178 339.2 13.9 333 11.9
2005-03-30 06:55:45 51°16.528 2°53.159 339.1 13.9 333 11.8
2005-03-30 06:55:49 51°16.544 2°53.146 338.9 13.9 333 11.8
2005-03-30 06:55:54 51°16.561 2°53.132 338.9 14 333 11.8
2005-03-30 06:55:59 51°16.578 2°53.118 339 14 333 11.7
2005-03-30 06:56:04 51°16.595 2°53.105 339.1 13.9 333 11.6
2005-03-30 06:56:09 51°16.611 2°53.092 339.1 13.9 333 11.6
2005-03-30 06:56:14 51°16.629 2°53.077 339.3 13.9 333 11.6
2005-03-30 06:56:20 51°16.648 2°53.061 339.3 13.9 333 11.4
2005-03-30 06:56:24 51°16.664 2°53.049 339.3 13.9 333 11.3
2005-03-30 06:56:29 51°16.681 2°53.035 339.1 13.9 333 11.3
2005-03-30 06:56:34 51°16.698 2°53.021 338.9 13.9 333 11.2
2005-03-30 06:56:39 51°16.716 2°53.007 338.9 13.9 333 11
2005-03-30 06:56:44 51°16.733 2°52.993 339.3 13.9 333 11
2005-03-30 06:56:49 51°16.75 2°52.979 339.2 13.9 333 10.8
2005-03-30 06:56:54 51°16.767 2°52.966 339.3 13.9 333 10.6
2005-03-30 06:56:59 51°16.783 2°52.953 339.4 13.9 333 10.3
2005-03-30 06:57:05 51°16.803 2°52.937 339.5 13.9 334 9.8
2005-03-30 06:57:10 51°16.82 2°52.924 339.5 13.9 334 9.2
2005-03-30 06:57:14 51°16.836 2°52.911 339.3 13.9 334 8.9
2005-03-30 06:57:19 51°16.851 2°52.898 339 13.6 333 8.9
2005-03-30 06:57:24 51°16.868 2°52.883 338.7 13.6 333 8.8
2005-03-30 06:57:30 51°16.887 2°52.867 338.7 13.5 332 8.6
2005-03-30 06:57:34 51°16.902 2°52.855 338.5 13.5 332 8.8
2005-03-30 06:57:39 51°16.919 2°52.84 338.2 13.6 332 9
2005-03-30 06:57:45 51°16.937 2°52.825 338 13.7 332 9.1
2005-03-30 06:57:49 51°16.952 2°52.812 337.9 13.7 332 9.1
2005-03-30 06:57:54 51°16.969 2°52.798 338.3 13.8 333 9.3
2005-03-30 06:57:59 51°16.987 2°52.784 338.8 13.8 333 9.2
2005-03-30 06:58:05 51°17.006 2°52.77 339.1 13.9 334 9.4
2005-03-30 06:58:09 51°17.022 2°52.757 339.6 13.9 334 9.6
2005-03-30 06:58:14 51°17.039 2°52.743 339.5 13.9 334 9.7
2005-03-30 06:58:18 51°17.053 2°52.732 339.3 14.1 333 9.9
2005-03-30 06:58:24 51°17.073 2°52.715 339.1 14 333 9.9
2005-03-30 06:58:29 51°17.089 2°52.703 339.1 14.1 333 9.8
2005-03-30 06:58:34 51°17.108 2°52.687 339 14.1 333 9.6
2005-03-30 06:58:39 51°17.126 2°52.673 339.3 14 333 9.3
2005-03-30 06:58:44 51°17.143 2°52.66 339.3 13.9 334 9.4
2005-03-30 06:58:49 51°17.158 2°52.649 339.6 13.8 334 9.3
2005-03-30 06:58:54 51°17.178 2°52.635 341.1 13.8 334 9.6
2005-03-30 06:58:58 51°17.192 2°52.626 342.5 13.8 338 9.4
2005-03-30 06:59:04 51°17.214 2°52.613 344 13.8 338 9.5
2005-03-30 06:59:09 51°17.23 2°52.604 345.3 13.9 340 9.4
2005-03-30 06:59:14 51°17.25 2°52.593 346.1 13.9 340 9.6
2005-03-30 06:59:19 51°17.268 2°52.582 346.7 13.9 340 9.7
2005-03-30 06:59:25 51°17.288 2°52.571 346.8 13.9 340 9.7
2005-03-30 06:59:29 51°17.303 2°52.563 346.8 13.9 341 9.7
2005-03-30 06:59:34 51°17.323 2°52.552 346.7 13.9 341 9.8
2005-03-30 06:59:39 51°17.342 2°52.543 346.6 13.9 341 9.9
2005-03-30 06:59:45 51°17.362 2°52.535 349 13.9 341 9.9
2005-03-30 06:59:50 51°17.381 2°52.529 351.4 13.9 347 9.9
2005-03-30 06:59:54 51°17.398 2°52.525 353.9 13.9 350 9.8
2005-03-30 06:59:58 51°17.414 2°52.522 355.8 13.8 351 9.7
2005-03-30 07:00:05 51°17.438 2°52.517 357.6 13.8 351 10.1
2005-03-30 07:00:09 51°17.453 2°52.514 358.5 13.8 351 9.9
2005-03-30 07:00:14 51°17.474 2°52.509 359.1 13.8 353 9.9
2005-03-30 07:00:20 51°17.495 2°52.505 359.2 13.8 353 10.1
2005-03-30 07:00:25 51°17.514 2°52.501 358.7 13.8 353 10
2005-03-30 07:00:29 51°17.531 2°52.497 358.4 13.8 352 10.1
2005-03-30 07:00:34 51°17.55 2°52.493 358.3 13.8 352 10
2005-03-30 07:00:39 51°17.569 2°52.489 358.3 13.8 352 10.1
2005-03-30 07:00:45 51°17.59 2°52.485 358.5 13.8 352 10.1
2005-03-30 07:00:49 51°17.605 2°52.481 358.4 13.8 352 10
2005-03-30 07:00:55 51°17.628 2°52.477 358.2 13.8 352 10.2
2005-03-30 07:01:00 51°17.647 2°52.473 358.3 13.8 352 10.2
2005-03-30 07:01:05 51°17.665 2°52.469 358.5 13.8 353 10.1
2005-03-30 07:01:09 51°17.683 2°52.465 358.5 13.8 352 10.1
2005-03-30 07:01:14 51°17.702 2°52.461 358.2 13.8 352 10.1
2005-03-30 07:01:19 51°17.721 2°52.457 357.8 13.8 352 10
2005-03-30 07:01:24 51°17.739 2°52.452 357.6 13.8 352 10.1
2005-03-30 07:01:29 51°17.758 2°52.446 357.5 13.7 351 10.1
2005-03-30 07:01:34 51°17.777 2°52.441 357 13.7 351 10.1
2005-03-30 07:01:39 51°17.796 2°52.436 356.6 13.7 351 10.1
2005-03-30 07:01:44 51°17.814 2°52.431 356.9 13.7 351 10
2005-03-30 07:01:49 51°17.833 2°52.427 357.5 13.7 351 10.1
2005-03-30 07:01:54 51°17.852 2°52.422 357.8 13.7 351 10.2
2005-03-30 07:01:59 51°17.871 2°52.417 358.2 13.7 351 10.2
2005-03-30 07:02:04 51°17.889 2°52.413 358.2 13.7 352 10
2005-03-30 07:02:09 51°17.908 2°52.408 358.3 13.6 351 10.3
2005-03-30 07:02:15 51°17.929 2°52.403 358.2 13.7 351 10.3
2005-03-30 07:02:19 51°17.944 2°52.4 357.9 13.6 351 10.2
2005-03-30 07:02:25 51°17.967 2°52.395 357.8 13.7 352 10.2
2005-03-30 07:02:29 51°17.982 2°52.394 358.5 13.6 355 10.3
2005-03-30 07:02:34 51°18.002 2°52.393 2.3 13.6 355 10.3
2005-03-30 07:02:39 51°18.021 2°52.393 5.1 13.6 359 10.3
2005-03-30 07:02:44 51°18.039 2°52.395 7.6 13.5 2 10.3
2005-03-30 07:02:49 51°18.056 2°52.397 9.4 13.5 4 10.4
2005-03-30 07:02:54 51°18.075 2°52.4 10.9 13.5 4 10.4
2005-03-30 07:02:58 51°18.092 2°52.403 12.4 13.5 7 10.4
2005-03-30 07:03:05 51°18.116 2°52.407 13.5 13.5 7 10.4
2005-03-30 07:03:09 51°18.133 2°52.41 13.7 13.6 7 10.4
2005-03-30 07:03:14 51°18.151 2°52.414 14.2 13.5 8 10.5
2005-03-30 07:03:18 51°18.166 2°52.417 14.1 13.5 7 10.5
2005-03-30 07:03:24 51°18.188 2°52.421 14.1 13.5 7 10.6
2005-03-30 07:03:30 51°18.209 2°52.424 13.9 13.5 7 10.6
2005-03-30 07:03:34 51°18.226 2°52.427 13.7 13.5 7 10.5
2005-03-30 07:03:38 51°18.241 2°52.43 13.7 13.6 6 10.6
2005-03-30 07:03:44 51°18.263 2°52.434 13.7 13.6 6 10.8
2005-03-30 07:03:49 51°18.28 2°52.437 14.1 13.5 7 10.6
2005-03-30 07:03:54 51°18.299 2°52.44 14.1 13.6 6 10.7
2005-03-30 07:03:59 51°18.32 2°52.444 13.6 13.6 6 10.7
2005-03-30 07:04:05 51°18.34 2°52.447 13.4 13.6 6 10.9
2005-03-30 07:04:09 51°18.357 2°52.449 13.3 13.6 6 10.8
2005-03-30 07:04:14 51°18.376 2°52.453 13.3 13.6 6 10.9
2005-03-30 07:04:20 51°18.396 2°52.457 13.3 13.6 6 10.9
2005-03-30 07:04:25 51°18.415 2°52.459 13.4 13.6 6 11
2005-03-30 07:04:29 51°18.432 2°52.461 13 13.6 5 11.1
2005-03-30 07:04:34 51°18.451 2°52.464 12.7 13.6 5 10.9
2005-03-30 07:04:39 51°18.468 2°52.467 12.8 13.6 6 11
2005-03-30 07:04:44 51°18.488 2°52.472 13 13.6 6 11
2005-03-30 07:04:49 51°18.506 2°52.48 16.6 13.6 6 11.1
2005-03-30 07:04:54 51°18.523 2°52.491 21.8 13.3 19 11.2
2005-03-30 07:04:59 51°18.539 2°52.505 27.3 13.3 19 11.2
2005-03-30 07:05:05 51°18.555 2°52.523 32 13.3 19 11.1
2005-03-30 07:05:09 51°18.567 2°52.539 39.9 12.8 38 11.1
2005-03-30 07:05:15 51°18.58 2°52.563 46.9 12.7 46 11.2
2005-03-30 07:05:19 51°18.59 2°52.58 52.6 12.7 49 11.2
2005-03-30 07:05:24 51°18.601 2°52.604 55.6 12.7 49 11.4
2005-03-30 07:05:29 51°18.61 2°52.624 57.6 12.7 53 11.3
2005-03-30 07:05:34 51°18.62 2°52.651 60.9 12.7 53 11.2
2005-03-30 07:05:39 51°18.628 2°52.676 64.5 12.7 60 11.3
2005-03-30 07:05:44 51°18.636 2°52.701 67.1 12.7 64 11.2
2005-03-30 07:05:49 51°18.642 2°52.724 69.6 12.7 65 11.3
2005-03-30 07:05:54 51°18.65 2°52.752 71 12.7 66 11.4
2005-03-30 07:05:59 51°18.657 2°52.779 71.7 12.8 66 11.3
2005-03-30 07:06:04 51°18.664 2°52.805 72.2 12.8 66 11.3
2005-03-30 07:06:09 51°18.67 2°52.831 72.9 12.8 69 11.3
2005-03-30 07:06:15 51°18.678 2°52.86 73.3 12.8 69 11.3
2005-03-30 07:06:20 51°18.684 2°52.885 73.3 12.8 69 11.3
2005-03-30 07:06:24 51°18.691 2°52.91 72.9 12.9 67 11.3
2005-03-30 07:06:29 51°18.697 2°52.933 72.6 12.9 67 11.3
2005-03-30 07:06:34 51°18.704 2°52.963 72.5 12.9 68 11.3
2005-03-30 07:06:39 51°18.711 2°52.99 72.5 12.9 68 11.2
2005-03-30 07:06:45 51°18.717 2°53.019 73.8 12.9 70 11.3
2005-03-30 07:06:50 51°18.723 2°53.046 75.1 12.9 72 11.3
2005-03-30 07:06:54 51°18.727 2°53.071 76.7 12.9 73 11.3
2005-03-30 07:06:59 51°18.732 2°53.098 77.6 12.9 73 11.3
2005-03-30 07:07:04 51°18.737 2°53.125 78.5 12.9 74 11.3
2005-03-30 07:07:09 51°18.741 2°53.15 78.9 12.8 74 11.3
2005-03-30 07:07:14 51°18.746 2°53.18 79.2 12.8 75 11.3
2005-03-30 07:07:20 51°18.752 2°53.21 79.3 12.8 75 11.2
2005-03-30 07:07:24 51°18.756 2°53.235 79.2 12.8 75 11.4
2005-03-30 07:07:29 51°18.76 2°53.263 79.2 12.8 75 11.3
2005-03-30 07:07:34 51°18.765 2°53.29 79.7 12.9 75 11.2
2005-03-30 07:07:40 51°18.77 2°53.32 79.4 12.9 75 11.3
2005-03-30 07:07:44 51°18.774 2°53.345 79.2 12.9 74 11.2
2005-03-30 07:07:49 51°18.779 2°53.37 79 12.9 74 11.3
2005-03-30 07:07:54 51°18.784 2°53.399 78.2 12.8 73 11.3
2005-03-30 07:08:00 51°18.79 2°53.43 78.1 12.9 74 11.2
2005-03-30 07:08:05 51°18.794 2°53.457 78.6 12.9 74 11.2
2005-03-30 07:08:09 51°18.798 2°53.482 79.1 12.9 76 11.3
2005-03-30 07:08:14 51°18.803 2°53.509 79.5 12.9 76 11.4
2005-03-30 07:08:19 51°18.808 2°53.537 79.3 12.8 75 11.3
2005-03-30 07:08:25 51°18.814 2°53.566 79.6 12.8 74 11.4
2005-03-30 07:08:29 51°18.818 2°53.588 77.5 12.9 71 11.3
2005-03-30 07:08:34 51°18.824 2°53.618 76.8 12.9 71 11.2
2005-03-30 07:08:38 51°18.829 2°53.639 76 12.9 71 11.3
2005-03-30 07:08:45 51°18.837 2°53.673 75.3 12.8 71 11.3
2005-03-30 07:08:50 51°18.843 2°53.7 74.9 12.8 71 11.4
2005-03-30 07:08:54 51°18.849 2°53.724 74.2 12.9 69 11.3
2005-03-30 07:09:00 51°18.856 2°53.753 73.8 12.9 69 11.3
2005-03-30 07:09:04 51°18.862 2°53.777 73.8 12.8 69 11.3
2005-03-30 07:09:09 51°18.869 2°53.804 73.9 12.8 69 11.4
2005-03-30 07:09:15 51°18.876 2°53.833 74 12.8 69 11.3
2005-03-30 07:09:18 51°18.88 2°53.851 73.4 12.9 69 11.3
2005-03-30 07:09:25 51°18.888 2°53.886 73.8 12.9 69 11.3
2005-03-30 07:09:29 51°18.893 2°53.908 74.5 12.9 70 11.3
2005-03-30 07:09:34 51°18.9 2°53.937 74.8 12.9 70 11.3
2005-03-30 07:09:40 51°18.907 2°53.966 74.9 12.9 70 11.3
2005-03-30 07:09:45 51°18.913 2°53.993 75 12.9 70 11.3
2005-03-30 07:09:49 51°18.918 2°54.014 74.8 12.9 69 11.4
2005-03-30 07:09:54 51°18.925 2°54.044 74.3 12.9 69 11.3
2005-03-30 07:10:00 51°18.932 2°54.073 74.3 12.9 70 11.3
2005-03-30 07:10:04 51°18.938 2°54.097 74.7 12.9 70 11.2
2005-03-30 07:10:09 51°18.944 2°54.121 74.5 12.9 69 11.3
2005-03-30 07:10:15 51°18.951 2°54.154 74.2 12.9 69 11.3
2005-03-30 07:10:19 51°18.958 2°54.177 74.4 12.9 70 11.2
2005-03-30 07:10:25 51°18.964 2°54.206 74.2 12.9 69 11.2
2005-03-30 07:10:29 51°18.97 2°54.231 74.1 12.9 70 11.3
2005-03-30 07:10:34 51°18.976 2°54.257 74.7 12.8 70 11.2
2005-03-30 07:10:39 51°18.983 2°54.284 74.7 12.9 70 11.3
2005-03-30 07:10:45 51°18.99 2°54.313 74.6 12.9 69 11.3
2005-03-30 07:10:49 51°18.995 2°54.337 74.2 12.8 69 11.3
2005-03-30 07:10:54 51°19.002 2°54.364 74.6 12.8 70 11.3
2005-03-30 07:10:59 51°19.008 2°54.391 74.7 12.8 68 11.2
2005-03-30 07:11:04 51°19.014 2°54.417 74.6 12.9 69 11.2
2005-03-30 07:11:10 51°19.021 2°54.446 74.2 12.8 69 11.2
2005-03-30 07:11:14 51°19.027 2°54.47 74.2 12.8 69 11.2
2005-03-30 07:11:20 51°19.034 2°54.499 74.8 12.8 69 11.3
2005-03-30 07:11:25 51°19.039 2°54.526 74.7 12.8 69 11.3
2005-03-30 07:11:28 51°19.044 2°54.544 74.9 12.9 70 11.2
2005-03-30 07:11:34 51°19.051 2°54.574 75 12.8 70 11.2
2005-03-30 07:11:40 51°19.058 2°54.606 75.2 12.8 70 11.2
2005-03-30 07:11:45 51°19.064 2°54.633 74.7 12.8 70 11.3
2005-03-30 07:11:49 51°19.069 2°54.654 75.4 12.8 70 11.3
2005-03-30 07:11:54 51°19.075 2°54.684 75.2 12.9 69 11.3
2005-03-30 07:11:59 51°19.081 2°54.711 75.4 12.8 71 11.2
2005-03-30 07:12:05 51°19.088 2°54.74 75.3 12.9 71 11.3
2005-03-30 07:12:09 51°19.093 2°54.764 75.5 12.9 71 11.2
2005-03-30 07:12:14 51°19.099 2°54.791 75.4 12.9 70 11.3
2005-03-30 07:12:19 51°19.106 2°54.818 75.3 12.9 70 11.2
2005-03-30 07:12:25 51°19.112 2°54.846 74.7 12.9 70 11.2
2005-03-30 07:12:29 51°19.117 2°54.868 74.9 12.9 70 11.2
2005-03-30 07:12:34 51°19.124 2°54.897 75.2 12.8 70 11.2
2005-03-30 07:12:38 51°19.128 2°54.918 75.2 12.8 71 11.2
2005-03-30 07:12:45 51°19.136 2°54.953 75.4 12.8 70 11.2
2005-03-30 07:12:49 51°19.141 2°54.974 75.3 12.8 71 11.2
2005-03-30 07:12:54 51°19.148 2°55.004 75.4 12.8 71 11.1
2005-03-30 07:12:59 51°19.153 2°55.028 75 12.7 71 11.1
2005-03-30 07:13:04 51°19.16 2°55.057 75.4 12.7 71 11.1
2005-03-30 07:13:10 51°19.166 2°55.086 75.6 12.9 69 11.1
2005-03-30 07:13:14 51°19.172 2°55.11 75.3 12.9 69 11
2005-03-30 07:13:18 51°19.176 2°55.131 75.1 12.7 70 11.1
2005-03-30 07:13:25 51°19.183 2°55.166 75.4 12.7 71 11.1
2005-03-30 07:13:29 51°19.189 2°55.19 75.4 12.8 70 11
2005-03-30 07:13:34 51°19.195 2°55.216 75.3 12.8 71 11
2005-03-30 07:13:39 51°19.2 2°55.243 75.6 12.8 70 11
2005-03-30 07:13:45 51°19.207 2°55.272 75.6 12.8 70 11
2005-03-30 07:13:50 51°19.212 2°55.299 75.5 12.8 70 11
2005-03-30 07:13:54 51°19.218 2°55.323 75.7 12.8 70 11
2005-03-30 07:13:58 51°19.223 2°55.344 75.7 12.8 70 11
2005-03-30 07:14:05 51°19.231 2°55.379 75.4 12.8 70 11
2005-03-30 07:14:09 51°19.236 2°55.403 75.1 12.8 70 11
2005-03-30 07:14:14 51°19.242 2°55.429 75.1 12.8 70 11
2005-03-30 07:14:19 51°19.248 2°55.456 75.3 12.8 70 10.9
2005-03-30 07:14:24 51°19.254 2°55.482 75.4 12.8 70 10.9
2005-03-30 07:14:30 51°19.26 2°55.512 75.1 12.8 70 10.8
2005-03-30 07:14:34 51°19.266 2°55.535 75.2 12.7 70 10.9
2005-03-30 07:14:40 51°19.272 2°55.565 74.7 12.7 70 10.9
2005-03-30 07:14:45 51°19.279 2°55.591 74.8 12.8 70 10.9
2005-03-30 07:14:49 51°19.284 2°55.613 74.4 12.8 70 10.9
2005-03-30 07:14:54 51°19.29 2°55.642 74.7 12.8 70 10.9
2005-03-30 07:14:58 51°19.295 2°55.663 74.7 12.8 70 10.8
2005-03-30 07:15:04 51°19.302 2°55.695 74.8 12.8 70 10.8
2005-03-30 07:15:09 51°19.308 2°55.719 74.8 12.8 70 10.8
2005-03-30 07:15:14 51°19.314 2°55.748 74.7 12.8 71 10.8
2005-03-30 07:15:20 51°19.321 2°55.778 75 12.8 71 10.7
2005-03-30 07:15:24 51°19.326 2°55.802 75.6 12.8 71 10.9
2005-03-30 07:15:29 51°19.331 2°55.826 75.3 12.8 70 10.8
2005-03-30 07:15:34 51°19.338 2°55.855 75.3 12.8 70 10.8
2005-03-30 07:15:39 51°19.344 2°55.882 75 12.8 70 10.6
2005-03-30 07:15:45 51°19.351 2°55.911 74.9 12.8 70 10.7
2005-03-30 07:15:49 51°19.356 2°55.935 74.9 12.8 70 10.7
2005-03-30 07:15:54 51°19.362 2°55.962 74.9 12.8 70 10.7
2005-03-30 07:16:00 51°19.368 2°55.992 74.9 12.8 70 10.6
2005-03-30 07:16:05 51°19.375 2°56.018 74.8 12.8 70 10.6
2005-03-30 07:16:09 51°19.38 2°56.042 74.6 12.8 70 10.7
2005-03-30 07:16:14 51°19.386 2°56.069 74.7 12.8 70 10.6
2005-03-30 07:16:18 51°19.391 2°56.09 74.9 12.8 70 10.6
2005-03-30 07:16:24 51°19.398 2°56.122 74.7 12.8 71 10.6
2005-03-30 07:16:29 51°19.404 2°56.149 74.9 12.8 71 10.6
2005-03-30 07:16:35 51°19.411 2°56.179 74.8 12.8 71 10.6
2005-03-30 07:16:38 51°19.415 2°56.197 74.9 12.8 71 10.6
2005-03-30 07:16:44 51°19.421 2°56.23 75.4 12.8 71 10.5
2005-03-30 07:16:49 51°19.427 2°56.253 75.7 12.8 71 10.6
2005-03-30 07:16:54 51°19.433 2°56.283 75 12.8 71 10.5
2005-03-30 07:16:59 51°19.439 2°56.31 75.4 12.8 71 10.4
2005-03-30 07:17:04 51°19.445 2°56.337 75.1 12.8 71 10.5
2005-03-30 07:17:09 51°19.451 2°56.364 74.9 12.8 70 10.5
2005-03-30 07:17:14 51°19.457 2°56.39 74.6 12.8 71 10.4
2005-03-30 07:17:18 51°19.463 2°56.411 74.2 12.8 68 10.6
2005-03-30 07:17:24 51°19.47 2°56.443 73.8 12.8 71 10.4
2005-03-30 07:17:29 51°19.476 2°56.47 74.6 12.8 69 10.4
2005-03-30 07:17:34 51°19.482 2°56.497 74.5 12.8 69 10.4
2005-03-30 07:17:39 51°19.488 2°56.523 74.7 12.8 70 10.3
2005-03-30 07:17:44 51°19.494 2°56.55 74.7 12.8 70 10.3
2005-03-30 07:17:49 51°19.5 2°56.574 74.5 12.7 70 10.4
2005-03-30 07:17:54 51°19.506 2°56.603 74.6 12.7 70 10.4
2005-03-30 07:17:58 51°19.511 2°56.624 74.5 12.8 71 10.4
2005-03-30 07:18:04 51°19.518 2°56.657 75 12.8 71 10.4
2005-03-30 07:18:10 51°19.524 2°56.686 75.3 12.8 71 10.3
2005-03-30 07:18:14 51°19.53 2°56.71 75.4 12.8 71 10.4
2005-03-30 07:18:19 51°19.535 2°56.737 75.5 12.8 71 10.3
2005-03-30 07:18:24 51°19.541 2°56.764 75.9 12.8 71 10.3
2005-03-30 07:18:29 51°19.546 2°56.788 75.9 12.8 71 10.3
2005-03-30 07:18:34 51°19.553 2°56.817 75.7 12.8 71 10.3
2005-03-30 07:18:40 51°19.559 2°56.847 75.3 12.8 71 10.3
2005-03-30 07:18:45 51°19.565 2°56.873 75.2 12.8 70 10.2
2005-03-30 07:18:49 51°19.57 2°56.894 74.9 12.8 70 10.2
2005-03-30 07:18:54 51°19.577 2°56.923 74.4 12.8 69 10.2
2005-03-30 07:18:58 51°19.582 2°56.944 73.6 12.8 69 10.1
2005-03-30 07:19:04 51°19.59 2°56.976 73.6 12.8 69 10.1
2005-03-30 07:19:09 51°19.596 2°56.999 73.5 12.8 69 10.3
2005-03-30 07:19:14 51°19.603 2°57.028 73.5 12.7 69 10
2005-03-30 07:19:20 51°19.61 2°57.057 74.1 12.8 70 10.1
2005-03-30 07:19:25 51°19.617 2°57.083 73.9 12.8 70 10.2
2005-03-30 07:19:29 51°19.622 2°57.104 74 12.8 69 10.1
2005-03-30 07:19:34 51°19.628 2°57.133 73.9 12.8 69 10.1
2005-03-30 07:19:39 51°19.635 2°57.16 74.4 12.8 69 10.1
2005-03-30 07:19:45 51°19.641 2°57.189 74.4 12.8 69 10.1
2005-03-30 07:19:49 51°19.647 2°57.21 74.6 12.8 69 10.1
2005-03-30 07:19:54 51°19.653 2°57.239 74.4 12.8 69 10.1
2005-03-30 07:19:59 51°19.66 2°57.266 74.5 12.8 70 10
2005-03-30 07:20:05 51°19.667 2°57.294 74 12.8 69 10.1
2005-03-30 07:20:09 51°19.674 2°57.318 74 12.9 67 10
2005-03-30 07:20:14 51°19.681 2°57.344 73.4 12.9 67 10
2005-03-30 07:20:19 51°19.688 2°57.371 73.3 12.9 67 10
2005-03-30 07:20:24 51°19.694 2°57.397 73.3 12.9 68 10
2005-03-30 07:20:29 51°19.7 2°57.421 73.9 13 68 9.9
2005-03-30 07:20:34 51°19.708 2°57.45 74.2 13 68 10.1
2005-03-30 07:20:38 51°19.713 2°57.471 74.4 13 69 10
2005-03-30 07:20:45 51°19.722 2°57.506 74.6 12.9 68 10
2005-03-30 07:20:49 51°19.727 2°57.527 74.5 12.9 68 9.9
2005-03-30 07:20:54 51°19.734 2°57.557 74.7 12.9 68 9.9
2005-03-30 07:20:58 51°19.739 2°57.578 75 13 69 9.9
2005-03-30 07:21:05 51°19.747 2°57.612 74.9 12.9 68 9.9
2005-03-30 07:21:09 51°19.752 2°57.634 74.9 12.8 70 9.8
2005-03-30 07:21:14 51°19.76 2°57.663 74.9 12.9 68 9.9
2005-03-30 07:21:20 51°19.767 2°57.692 74.3 12.9 68 9.9
2005-03-30 07:21:25 51°19.774 2°57.719 74 12.9 68 9.9
2005-03-30 07:21:29 51°19.78 2°57.743 74.4 12.9 69 9.9
2005-03-30 07:21:34 51°19.786 2°57.769 74.7 12.9 69 9.9
2005-03-30 07:21:38 51°19.791 2°57.79 74.6 12.9 68 9.9
2005-03-30 07:21:45 51°19.8 2°57.825 74.6 12.9 68 9.9
2005-03-30 07:21:49 51°19.805 2°57.846 74.7 12.9 69 9.9
2005-03-30 07:21:54 51°19.812 2°57.876 74.8 12.9 69 9.9
2005-03-30 07:21:58 51°19.818 2°57.897 74.5 12.9 68 9.9
2005-03-30 07:22:05 51°19.826 2°57.931 74 12.9 68 9.9
2005-03-30 07:22:09 51°19.833 2°57.955 73.6 12.9 68 10
2005-03-30 07:22:14 51°19.839 2°57.981 73.5 12.9 68 10
2005-03-30 07:22:19 51°19.846 2°58.008 73.8 12.9 68 10
2005-03-30 07:22:24 51°19.852 2°58.034 74.2 12.9 68 9.8
2005-03-30 07:22:30 51°19.86 2°58.063 74.2 12.9 68 10
2005-03-30 07:22:34 51°19.866 2°58.087 74.2 12.8 68 9.9
2005-03-30 07:22:40 51°19.873 2°58.116 74.5 12.8 68 9.9
2005-03-30 07:22:45 51°19.88 2°58.142 74 12.8 69 9.9
2005-03-30 07:22:49 51°19.885 2°58.163 74 12.8 69 9.8
2005-03-30 07:22:55 51°19.893 2°58.196 74 12.8 68 9.8
2005-03-30 07:22:58 51°19.898 2°58.214 74.2 12.9 67 9.7
2005-03-30 07:23:04 51°19.907 2°58.245 73.3 12.9 65 9.8
2005-03-30 07:23:09 51°19.914 2°58.268 72.2 12.9 65 9.8
2005-03-30 07:23:14 51°19.923 2°58.296 70.4 12.9 63 9.9
2005-03-30 07:23:20 51°19.932 2°58.324 69.6 12.9 64 9.9
2005-03-30 07:23:24 51°19.939 2°58.346 69.6 12.9 64 9.9
2005-03-30 07:23:28 51°19.946 2°58.367 69.1 12.9 63 9.8
2005-03-30 07:23:34 51°19.956 2°58.397 68.9 12.9 63 9.8
2005-03-30 07:23:38 51°19.962 2°58.418 68.6 12.9 64 9.9
2005-03-30 07:23:45 51°19.972 2°58.451 69.2 12.9 64 9.9
2005-03-30 07:23:49 51°19.979 2°58.475 70.2 12.9 64 9.9
2005-03-30 07:23:54 51°19.986 2°58.501 71.1 12.9 66 9.8
2005-03-30 07:24:00 51°19.995 2°58.529 72.4 12.9 67 9.9
2005-03-30 07:24:04 51°20.001 2°58.553 71.8 12.9 66 9.8
2005-03-30 07:24:10 51°20.009 2°58.581 71.9 12.9 66 9.9
2005-03-30 07:24:14 51°20.016 2°58.605 72.5 12.9 66 9.8
2005-03-30 07:24:19 51°20.023 2°58.631 72.3 12.9 66 9.8
2005-03-30 07:24:25 51°20.031 2°58.659 72 12.9 66 9.8
2005-03-30 07:24:30 51°20.038 2°58.685 72.2 12.9 66 9.8
2005-03-30 07:24:34 51°20.044 2°58.709 72.5 12.9 66 9.8
2005-03-30 07:24:39 51°20.051 2°58.735 72.9 12.9 67 9.8
2005-03-30 07:24:45 51°20.059 2°58.764 73.3 12.9 67 9.9
2005-03-30 07:24:49 51°20.065 2°58.785 73.2 12.9 67 9.9
2005-03-30 07:24:54 51°20.073 2°58.813 72.8 12.9 66 9.8
2005-03-30 07:24:58 51°20.079 2°58.834 72.5 12.8 65 9.7
2005-03-30 07:25:04 51°20.088 2°58.865 72 12.8 66 9.7
2005-03-30 07:25:09 51°20.095 2°58.891 72 12.8 66 9.7
2005-03-30 07:25:15 51°20.103 2°58.92 71.9 12.8 66 9.7
2005-03-30 07:25:19 51°20.11 2°58.943 72.5 12.9 65 9.9
2005-03-30 07:25:24 51°20.117 2°58.968 72.4 12.8 66 9.9
2005-03-30 07:25:29 51°20.124 2°58.991 72.4 12.9 65 9.9
2005-03-30 07:25:34 51°20.132 2°59.02 72 12.9 65 9.9
2005-03-30 07:25:40 51°20.14 2°59.048 71.7 12.9 65 9.8
2005-03-30 07:25:45 51°20.147 2°59.074 71.8 12.8 65 9.9
2005-03-30 07:25:49 51°20.153 2°59.094 72 12.8 67 9.9
2005-03-30 07:25:54 51°20.161 2°59.123 72.2 12.8 66 9.9
2005-03-30 07:25:59 51°20.168 2°59.149 72.5 12.8 66 9.8
2005-03-30 07:26:04 51°20.175 2°59.175 72.6 12.8 66 9.9
2005-03-30 07:26:10 51°20.183 2°59.203 72.7 12.8 66 9.9
2005-03-30 07:26:14 51°20.19 2°59.227 72.6 12.8 66 9.9
2005-03-30 07:26:19 51°20.197 2°59.253 72.5 12.7 65 9.8
2005-03-30 07:26:25 51°20.205 2°59.28 72 12.7 66 9.8
2005-03-30 07:26:29 51°20.211 2°59.301 72.1 12.7 65 9.8
2005-03-30 07:26:34 51°20.219 2°59.329 72.1 12.7 66 9.8
2005-03-30 07:26:38 51°20.225 2°59.349 71.2 12.7 66 9.9
2005-03-30 07:26:44 51°20.234 2°59.38 72.1 12.7 66 9.8
2005-03-30 07:26:49 51°20.24 2°59.403 72.1 12.7 66 9.8
2005-03-30 07:26:55 51°20.249 2°59.434 71.9 12.7 67 9.7
2005-03-30 07:26:58 51°20.254 2°59.452 72.2 12.6 67 9.7
2005-03-30 07:27:04 51°20.263 2°59.482 72.2 12.6 65 9.7
2005-03-30 07:27:09 51°20.269 2°59.505 71.8 12.6 65 9.7
2005-03-30 07:27:14 51°20.277 2°59.533 72.5 12.7 67 9.7
2005-03-30 07:27:19 51°20.284 2°59.559 72.5 12.7 67 9.8
2005-03-30 07:27:25 51°20.292 2°59.588 72.5 12.7 66 9.8
2005-03-30 07:27:29 51°20.298 2°59.608 72.6 12.6 67 9.8
2005-03-30 07:27:34 51°20.305 2°59.635 72.3 12.7 66 9.8
2005-03-30 07:27:39 51°20.313 2°59.661 72 12.7 66 9.7
2005-03-30 07:27:44 51°20.32 2°59.686 72.3 12.7 65 9.7
2005-03-30 07:27:49 51°20.326 2°59.709 71.8 12.6 66 9.7
2005-03-30 07:27:54 51°20.334 2°59.737 72 12.6 65 9.8
2005-03-30 07:28:00 51°20.342 2°59.765 72.5 12.6 65 9.8
2005-03-30 07:28:05 51°20.349 2°59.79 72.4 12.6 67 9.7
2005-03-30 07:28:09 51°20.354 2°59.811 72.5 12.6 67 9.7
2005-03-30 07:28:14 51°20.362 2°59.839 72.9 12.6 67 9.6
2005-03-30 07:28:19 51°20.369 2°59.865 73.1 12.6 67 9.7
2005-03-30 07:28:24 51°20.376 2°59.891 72.7 12.6 66 9.6
2005-03-30 07:28:30 51°20.383 2°59.919 72.5 12.6 66 9.6
2005-03-30 07:28:34 51°20.39 2°59.942 72.7 12.6 66 9.6
2005-03-30 07:28:39 51°20.397 2°59.968 72.7 12.6 66 9.6
2005-03-30 07:28:45 51°20.404 2°59.996 72.8 12.6 66 9.7
2005-03-30 07:28:49 51°20.41 3°0.016 72.8 12.6 66 9.7
2005-03-30 07:28:54 51°20.418 3°0.045 72.5 12.6 66 9.7
2005-03-30 07:28:58 51°20.424 3°0.065 72.4 12.6 65 9.8
2005-03-30 07:29:04 51°20.432 3°0.096 71.9 12.6 66 9.6
2005-03-30 07:29:09 51°20.439 3°0.118 72.2 12.6 66 9.6
2005-03-30 07:29:14 51°20.446 3°0.146 71.9 12.6 66 9.7
2005-03-30 07:29:20 51°20.454 3°0.174 72.1 12.6 66 9.6
2005-03-30 07:29:24 51°20.46 3°0.197 72.1 12.6 66 9.6
2005-03-30 07:29:29 51°20.466 3°0.22 72.4 12.6 66 9.6
2005-03-30 07:29:34 51°20.474 3°0.248 73.3 12.6 66 9.6
2005-03-30 07:29:39 51°20.48 3°0.275 73.7 12.6 66 9.6
2005-03-30 07:29:44 51°20.487 3°0.3 74.4 12.6 66 9.7
2005-03-30 07:29:49 51°20.492 3°0.323 74.2 12.6 66 9.6
2005-03-30 07:29:54 51°20.5 3°0.351 74.6 12.5 69 9.5
2005-03-30 07:30:00 51°20.506 3°0.379 74.4 12.5 69 9.6
2005-03-30 07:30:05 51°20.513 3°0.405 74.2 12.5 68 9.5
2005-03-30 07:30:09 51°20.518 3°0.425 74.2 12.5 68 9.5
2005-03-30 07:30:14 51°20.526 3°0.453 73.9 12.5 66 9.6
2005-03-30 07:30:20 51°20.533 3°0.481 73.6 12.5 67 9.5
2005-03-30 07:30:24 51°20.539 3°0.504 73.7 12.4 67 9.7
2005-03-30 07:30:29 51°20.545 3°0.527 73.7 12.5 68 9.6
2005-03-30 07:30:34 51°20.552 3°0.555 73.9 12.5 68 9.6
2005-03-30 07:30:39 51°20.559 3°0.581 73.8 12.5 68 9.7
2005-03-30 07:30:45 51°20.565 3°0.609 74.6 12.5 68 9.5
2005-03-30 07:30:49 51°20.571 3°0.632 74.6 12.5 68 9.6
2005-03-30 07:30:54 51°20.578 3°0.657 74.4 12.4 68 9.6
2005-03-30 07:30:58 51°20.583 3°0.677 74.3 12.4 68 9.8
2005-03-30 07:31:05 51°20.592 3°0.709 74.1 12.4 68 9.6
2005-03-30 07:31:09 51°20.596 3°0.73 74 12.4 68 9.5
2005-03-30 07:31:14 51°20.604 3°0.758 74.1 12.4 68 9.5
2005-03-30 07:31:18 51°20.609 3°0.778 74 12.4 68 9.6
2005-03-30 07:31:24 51°20.617 3°0.808 74 12.4 68 9.6
2005-03-30 07:31:29 51°20.622 3°0.832 74 12.3 69 9.6
2005-03-30 07:31:35 51°20.63 3°0.863 74.4 12.4 69 9.6
2005-03-30 07:31:39 51°20.635 3°0.886 74.7 12.4 68 9.7
2005-03-30 07:31:45 51°20.642 3°0.913 74 12.4 68 9.6
2005-03-30 07:31:49 51°20.648 3°0.936 74.6 12.4 68 9.6
2005-03-30 07:31:54 51°20.654 3°0.961 74.6 12.4 68 9.7
2005-03-30 07:31:59 51°20.661 3°0.987 74.2 12.4 68 9.7
2005-03-30 07:32:04 51°20.667 3°1.012 74 12.4 68 9.6
2005-03-30 07:32:10 51°20.674 3°1.04 74 12.4 68 9.7
2005-03-30 07:32:14 51°20.679 3°1.063 74 12.4 68 9.6
2005-03-30 07:32:19 51°20.686 3°1.089 74.6 12.4 68 9.8
2005-03-30 07:32:25 51°20.693 3°1.117 74.4 12.3 70 9.8
2005-03-30 07:32:29 51°20.698 3°1.141 74.7 12.3 70 9.9
2005-03-30 07:32:35 51°20.705 3°1.169 74.8 12.4 69 9.8
2005-03-30 07:32:39 51°20.71 3°1.189 74.7 12.3 69 9.7
2005-03-30 07:32:44 51°20.717 3°1.216 74.7 12.3 70 9.9
2005-03-30 07:32:49 51°20.723 3°1.242 74.7 12.3 69 9.8
2005-03-30 07:32:54 51°20.729 3°1.267 74.8 12.3 69 9.7
2005-03-30 07:32:59 51°20.735 3°1.293 74.7 12.3 68 9.7
2005-03-30 07:33:05 51°20.741 3°1.32 74.7 12.3 68 9.9
2005-03-30 07:33:09 51°20.746 3°1.343 74.7 12.3 68 9.8
2005-03-30 07:33:14 51°20.752 3°1.368 74.9 12.3 68 9.6
2005-03-30 07:33:19 51°20.758 3°1.394 74.7 12.3 68 9.7
2005-03-30 07:33:24 51°20.764 3°1.419 74.9 12.3 69 9.7
2005-03-30 07:33:29 51°20.77 3°1.444 74.9 12.3 70 9.8
2005-03-30 07:33:34 51°20.776 3°1.469 75.2 12.4 69 9.7
2005-03-30 07:33:39 51°20.782 3°1.493 74.7 12.3 69 9.8
2005-03-30 07:33:44 51°20.788 3°1.52 74.8 12.3 69 9.7
2005-03-30 07:33:49 51°20.795 3°1.546 75.1 12.3 69 9.7
2005-03-30 07:33:54 51°20.8 3°1.571 74.3 12.3 69 9.7
2005-03-30 07:33:59 51°20.807 3°1.597 75 12.3 70 9.7
2005-03-30 07:34:04 51°20.813 3°1.622 74.1 12.3 69 9.7
2005-03-30 07:34:10 51°20.82 3°1.65 74.6 12.3 70 9.7
2005-03-30 07:34:14 51°20.826 3°1.673 74.4 12.4 69 9.6
2005-03-30 07:34:20 51°20.833 3°1.701 74.3 12.4 69 9.7
2005-03-30 07:34:24 51°20.838 3°1.724 74.1 12.3 69 9.7
2005-03-30 07:34:29 51°20.845 3°1.749 74 12.4 69 9.7
2005-03-30 07:34:34 51°20.851 3°1.774 74.4 12.3 69 9.7
2005-03-30 07:34:39 51°20.856 3°1.798 74.4 12.3 69 9.6
2005-03-30 07:34:45 51°20.864 3°1.828 74.6 12.3 69 9.6
2005-03-30 07:34:49 51°20.87 3°1.851 74.6 12.3 69 9.6
2005-03-30 07:34:54 51°20.876 3°1.876 74.2 12.3 69 9.7
2005-03-30 07:34:58 51°20.881 3°1.896 74.2 12.4 67 9.7
2005-03-30 07:35:05 51°20.89 3°1.929 73.4 12.4 67 9.8
2005-03-30 07:35:09 51°20.895 3°1.952 74 12.3 68 9.7
2005-03-30 07:35:14 51°20.901 3°1.978 73.9 12.3 67 9.6
2005-03-30 07:35:18 51°20.907 3°1.998 74.5 12.4 68 9.7
2005-03-30 07:35:25 51°20.915 3°2.031 74.2 12.3 68 9.7
2005-03-30 07:35:29 51°20.921 3°2.054 74.1 12.3 68 9.8
2005-03-30 07:35:34 51°20.927 3°2.079 74.3 12.3 68 9.7
2005-03-30 07:35:38 51°20.932 3°2.1 74.2 12.3 68 9.7
2005-03-30 07:35:44 51°20.94 3°2.13 74.2 12.3 68 9.8
2005-03-30 07:35:50 51°20.946 3°2.157 73.9 12.3 69 9.7
2005-03-30 07:35:54 51°20.952 3°2.181 73.9 12.3 69 9.7
2005-03-30 07:35:59 51°20.959 3°2.207 74 12.3 68 9.7
2005-03-30 07:36:04 51°20.965 3°2.232 74.2 12.3 68 9.8
2005-03-30 07:36:09 51°20.971 3°2.254 74.3 12.3 69 9.8
2005-03-30 07:36:14 51°20.978 3°2.282 74.6 12.3 69 9.7
2005-03-30 07:36:19 51°20.983 3°2.306 74.7 12.3 70 9.8
2005-03-30 07:36:25 51°20.99 3°2.336 74.7 12.3 70 9.8
2005-03-30 07:36:29 51°20.996 3°2.359 74.7 12.3 70 9.8
2005-03-30 07:36:35 51°21.002 3°2.387 74.8 12.3 70 9.8
2005-03-30 07:36:38 51°21.007 3°2.404 74.7 12.4 68 9.8
2005-03-30 07:36:45 51°21.015 3°2.437 74.4 12.4 68 9.8
2005-03-30 07:36:49 51°21.021 3°2.46 74.1 12.4 68 9.7
2005-03-30 07:36:54 51°21.027 3°2.486 73.7 12.3 68 9.8
2005-03-30 07:37:00 51°21.035 3°2.514 73.7 12.3 68 9.8
2005-03-30 07:37:05 51°21.041 3°2.54 74.1 12.3 68 9.8
2005-03-30 07:37:09 51°21.047 3°2.563 74.2 12.4 69 9.8
2005-03-30 07:37:14 51°21.053 3°2.588 74.4 12.3 68 9.8
2005-03-30 07:37:19 51°21.059 3°2.613 74.8 12.3 68 9.9
2005-03-30 07:37:25 51°21.065 3°2.64 74.3 12.3 68 9.8
2005-03-30 07:37:29 51°21.07 3°2.66 74.2 12.3 69 9.8
2005-03-30 07:37:34 51°21.077 3°2.688 74.2 12.3 69 9.8
2005-03-30 07:37:39 51°21.083 3°2.712 74.4 12.3 69 9.8
2005-03-30 07:37:45 51°21.09 3°2.742 74.3 12.3 69 9.8
2005-03-30 07:37:50 51°21.096 3°2.767 74.4 12.3 69 9.8
2005-03-30 07:37:55 51°21.102 3°2.793 74.7 12.3 69 9.7
2005-03-30 07:37:58 51°21.107 3°2.81 74.4 12.3 69 9.8
2005-03-30 07:38:05 51°21.115 3°2.843 74.4 12.3 69 9.9
2005-03-30 07:38:10 51°21.121 3°2.868 74 12.2 69 9.9
2005-03-30 07:38:14 51°21.126 3°2.892 74.3 12.3 69 9.9
2005-03-30 07:38:18 51°21.131 3°2.912 74.5 12.3 69 9.9
2005-03-30 07:38:24 51°21.139 3°2.943 74.6 12.3 69 9.8
2005-03-30 07:38:30 51°21.146 3°2.972 74.4 12.3 69 9.8
2005-03-30 07:38:34 51°21.151 3°2.995 74 12.2 68 9.7
2005-03-30 07:38:40 51°21.158 3°3.022 74.2 12.2 68 9.8
2005-03-30 07:38:44 51°21.164 3°3.045 73.9 12.3 69 9.8
2005-03-30 07:38:49 51°21.17 3°3.07 73.6 12.2 68 9.9
2005-03-30 07:38:54 51°21.176 3°3.096 73.4 12.3 69 9.8
2005-03-30 07:38:59 51°21.183 3°3.121 74 12.3 69 10
2005-03-30 07:39:05 51°21.189 3°3.149 73.6 12.3 69 9.9
2005-03-30 07:39:09 51°21.194 3°3.169 73.7 12.3 69 9.9
2005-03-30 07:39:14 51°21.201 3°3.196 74.2 12.3 69 9.9
2005-03-30 07:39:18 51°21.206 3°3.217 74.2 12.3 69 10
2005-03-30 07:39:25 51°21.214 3°3.249 74.2 12.3 69 9.9
2005-03-30 07:39:29 51°21.218 3°3.27 74.1 12.3 69 10
2005-03-30 07:39:34 51°21.224 3°3.298 74.7 12.3 69 10
2005-03-30 07:39:39 51°21.23 3°3.324 75.5 12.3 69 10
2005-03-30 07:39:44 51°21.235 3°3.35 75.7 12.3 71 10
2005-03-30 07:39:49 51°21.24 3°3.373 75.9 12.2 72 10
2005-03-30 07:39:54 51°21.246 3°3.401 76.4 12.2 72 10
2005-03-30 07:39:58 51°21.25 3°3.422 76.3 12.3 72 10
2005-03-30 07:40:04 51°21.257 3°3.453 76.2 12.3 70 10.1
2005-03-30 07:40:10 51°21.263 3°3.481 76 12.3 72 10.1
2005-03-30 07:40:14 51°21.268 3°3.504 76.2 12.3 72 10
2005-03-30 07:40:19 51°21.273 3°3.53 75.9 12.3 72 10.1
2005-03-30 07:40:24 51°21.278 3°3.555 76.4 12.2 71 10
2005-03-30 07:40:29 51°21.283 3°3.579 76.9 12.3 73 10.1
2005-03-30 07:40:35 51°21.289 3°3.61 76.9 12.3 73 10.1
2005-03-30 07:40:38 51°21.293 3°3.628 76.5 12.3 72 10
2005-03-30 07:40:44 51°21.299 3°3.658 76.1 12.3 70 10.1
2005-03-30 07:40:50 51°21.306 3°3.687 75.9 12.3 71 10.1
2005-03-30 07:40:54 51°21.311 3°3.71 75.8 12.3 71 10.1
2005-03-30 07:40:59 51°21.316 3°3.736 75.6 12.3 71 10
2005-03-30 07:41:04 51°21.321 3°3.761 75.8 12.3 71 10.1
2005-03-30 07:41:09 51°21.326 3°3.785 75.9 12.3 72 10
2005-03-30 07:41:14 51°21.332 3°3.813 76.2 12.2 71 10
2005-03-30 07:41:19 51°21.337 3°3.839 76.4 12.2 71 10.1
2005-03-30 07:41:25 51°21.343 3°3.867 76.6 12.3 71 10
2005-03-30 07:41:29 51°21.348 3°3.89 76.2 12.3 71 10.1
2005-03-30 07:41:35 51°21.354 3°3.919 76.3 12.3 71 10
2005-03-30 07:41:38 51°21.357 3°3.936 76.8 12.2 72 10.1
2005-03-30 07:41:44 51°21.364 3°3.967 76.6 12.2 72 10
2005-03-30 07:41:49 51°21.369 3°3.99 76 12.2 71 10.1
2005-03-30 07:41:55 51°21.375 3°4.022 76.4 12.2 72 10.1
2005-03-30 07:42:00 51°21.38 3°4.047 76.6 12.2 71 10.1
2005-03-30 07:42:05 51°21.386 3°4.072 76.2 12.2 72 10.1
2005-03-30 07:42:10 51°21.391 3°4.098 76.3 12.2 72 10.1
2005-03-30 07:42:14 51°21.396 3°4.121 76.2 12.2 72 10.1
2005-03-30 07:42:20 51°21.401 3°4.149 76.8 12.2 72 10.1
2005-03-30 07:42:24 51°21.406 3°4.173 76.8 12.2 72 10
2005-03-30 07:42:30 51°21.412 3°4.201 76.7 12.3 72 10
2005-03-30 07:42:35 51°21.418 3°4.227 76.7 12.3 72 10.1
2005-03-30 07:42:38 51°21.421 3°4.245 76.2 12.3 72 10
2005-03-30 07:42:44 51°21.428 3°4.275 76.7 12.2 71 10
2005-03-30 07:42:49 51°21.433 3°4.301 76.4 12.3 71 10.1
2005-03-30 07:42:54 51°21.438 3°4.327 76.6 12.3 71 10
2005-03-30 07:42:59 51°21.444 3°4.353 76.9 12.2 72 10.1
2005-03-30 07:43:04 51°21.449 3°4.378 76.6 12.2 72 10.1
2005-03-30 07:43:09 51°21.455 3°4.404 76.9 12.3 71 10.1
2005-03-30 07:43:14 51°21.46 3°4.429 76.3 12.3 71 10
2005-03-30 07:43:19 51°21.465 3°4.455 76.4 12.3 71 10.1
2005-03-30 07:43:24 51°21.471 3°4.48 76.4 12.2 71 10.2
2005-03-30 07:43:29 51°21.476 3°4.506 76.2 12.1 71 10.2
2005-03-30 07:43:35 51°21.482 3°4.535 76.2 12.2 72 10.1
2005-03-30 07:43:39 51°21.487 3°4.555 76.5 12.2 71 10.1
2005-03-30 07:43:44 51°21.493 3°4.582 76.2 12.2 71 10.2
2005-03-30 07:43:49 51°21.498 3°4.608 75.6 12.1 71 10.2
2005-03-30 07:43:54 51°21.503 3°4.633 76.2 12.1 71 10.2
2005-03-30 07:43:59 51°21.508 3°4.657 76.1 12.1 72 10.2
2005-03-30 07:44:05 51°21.514 3°4.687 76.2 12.1 72 10.2
2005-03-30 07:44:09 51°21.519 3°4.71 76.7 12.1 72 10.2
2005-03-30 07:44:14 51°21.524 3°4.736 76.4 12.1 72 10.2
2005-03-30 07:44:20 51°21.53 3°4.764 76.7 12.1 72 10.1
2005-03-30 07:44:24 51°21.535 3°4.787 76.5 12.2 72 10.2
2005-03-30 07:44:29 51°21.54 3°4.812 76.6 12.1 71 10.2
2005-03-30 07:44:34 51°21.546 3°4.838 76.4 12.1 72 10.2
2005-03-30 07:44:39 51°21.551 3°4.864 76.3 12.1 72 10.2
2005-03-30 07:44:45 51°21.557 3°4.891 76.2 12.1 72 10.2
2005-03-30 07:44:49 51°21.561 3°4.912 76.3 12.1 72 10.3
2005-03-30 07:44:54 51°21.567 3°4.94 76.3 12.1 71 10.3
2005-03-30 07:44:59 51°21.572 3°4.963 76.2 12.1 71 10.3
2005-03-30 07:45:05 51°21.578 3°4.993 75.6 12.2 71 10.2
2005-03-30 07:45:10 51°21.584 3°5.019 76 12.1 72 10.2
2005-03-30 07:45:14 51°21.588 3°5.042 76.2 12.2 71 10.2
2005-03-30 07:45:19 51°21.594 3°5.067 76.2 12.1 72 10.3
2005-03-30 07:45:25 51°21.599 3°5.095 76.8 12.2 73 10.3
2005-03-30 07:45:29 51°21.604 3°5.118 76.9 12.1 72 10.3
2005-03-30 07:45:34 51°21.609 3°5.144 76.7 12.1 72 10.3
2005-03-30 07:45:40 51°21.615 3°5.172 77.2 12.2 72 10.3
2005-03-30 07:45:44 51°21.619 3°5.195 76.2 12 73 10.3
2005-03-30 07:45:49 51°21.624 3°5.221 76.9 12.1 72 10.2
2005-03-30 07:45:55 51°21.63 3°5.249 77 12.1 72 10.2
2005-03-30 07:45:58 51°21.633 3°5.266 76 12.1 72 10.2
2005-03-30 07:46:05 51°21.641 3°5.299 76.1 12.1 72 10.1
2005-03-30 07:46:09 51°21.645 3°5.319 75.8 12.1 71 10.2
2005-03-30 07:46:14 51°21.651 3°5.347 75.4 12.1 71 10.2
2005-03-30 07:46:20 51°21.657 3°5.375 75.6 12.1 71 10.2
2005-03-30 07:46:24 51°21.661 3°5.398 75.8 12 71 10.2
2005-03-30 07:46:29 51°21.666 3°5.423 76.2 12 72 10.2
2005-03-30 07:46:34 51°21.672 3°5.448 76.6 12 72 10.2
2005-03-30 07:46:39 51°21.676 3°5.472 76.5 12.1 72 10.3
2005-03-30 07:46:45 51°21.682 3°5.501 76.2 12.1 72 10.3
2005-03-30 07:46:49 51°21.686 3°5.521 76.3 12.1 72 10.2
2005-03-30 07:46:54 51°21.692 3°5.549 76.4 12.1 72 10.2
2005-03-30 07:46:58 51°21.696 3°5.569 76.2 12.1 72 10.2
2005-03-30 07:47:05 51°21.703 3°5.602 76.2 12 71 10.2
2005-03-30 07:47:09 51°21.707 3°5.622 76.4 11.9 72 10.2
2005-03-30 07:47:14 51°21.712 3°5.647 76.9 11.9 72 10.3
2005-03-30 07:47:19 51°21.717 3°5.675 76.8 11.9 72 10.2
2005-03-30 07:47:25 51°21.723 3°5.702 77.1 11.9 72 10.2
2005-03-30 07:47:29 51°21.727 3°5.725 76.6 11.9 72 10.2
2005-03-30 07:47:35 51°21.733 3°5.753 76.9 11.9 72 10.3
2005-03-30 07:47:38 51°21.736 3°5.77 76.8 11.9 72 10.3
2005-03-30 07:47:45 51°21.743 3°5.802 76.2 11.9 72 10.3
2005-03-30 07:47:50 51°21.748 3°5.828 76.1 11.9 72 10.3
2005-03-30 07:47:54 51°21.753 3°5.85 75.8 12 71 10.3
2005-03-30 07:48:00 51°21.759 3°5.878 75.5 11.9 71 10.3
2005-03-30 07:48:05 51°21.764 3°5.902 76 11.9 71 10.3
2005-03-30 07:48:10 51°21.769 3°5.927 76 11.9 72 10.3
2005-03-30 07:48:14 51°21.774 3°5.95 76.1 11.9 72 10.3
2005-03-30 07:48:19 51°21.779 3°5.975 76.2 11.9 72 10.3
2005-03-30 07:48:24 51°21.784 3°6 76.3 11.9 73 10.3
2005-03-30 07:48:29 51°21.789 3°6.023 76.8 11.9 72 10.3
2005-03-30 07:48:35 51°21.794 3°6.052 76.5 11.9 71 10.4
2005-03-30 07:48:38 51°21.797 3°6.069 76.4 11.9 72 10.4
2005-03-30 07:48:44 51°21.804 3°6.099 76.3 11.9 71 10.4
2005-03-30 07:48:49 51°21.809 3°6.125 76 11.8 72 10.4
2005-03-30 07:48:54 51°21.814 3°6.149 76.1 11.8 72 10.4
2005-03-30 07:48:59 51°21.819 3°6.175 76.5 11.9 72 10.4
2005-03-30 07:49:04 51°21.825 3°6.199 76.4 11.9 72 10.5
2005-03-30 07:49:08 51°21.829 3°6.219 75.9 11.8 71 10.4
2005-03-30 07:49:15 51°21.836 3°6.252 75.9 11.9 70 10.4
2005-03-30 07:49:20 51°21.842 3°6.276 75.4 11.9 71 10.4
2005-03-30 07:49:24 51°21.846 3°6.299 75.8 11.9 71 10.5
2005-03-30 07:49:28 51°21.85 3°6.319 76.6 11.9 71 10.4
2005-03-30 07:49:34 51°21.855 3°6.349 77.9 11.9 71 10.5
2005-03-30 07:49:39 51°21.859 3°6.372 78.6 11.8 77 10.5
2005-03-30 07:49:44 51°21.864 3°6.399 79.8 11.8 77 10.6
2005-03-30 07:49:49 51°21.867 3°6.422 80 11.9 77 10.5
2005-03-30 07:49:54 51°21.872 3°6.45 80.6 11.9 77 10.5
2005-03-30 07:50:00 51°21.876 3°6.478 80.5 11.8 75 10.6
2005-03-30 07:50:05 51°21.88 3°6.503 80.4 11.8 75 10.6
2005-03-30 07:50:09 51°21.883 3°6.523 80.2 11.9 76 10.6
2005-03-30 07:50:15 51°21.888 3°6.554 80.7 11.8 76 10.7
2005-03-30 07:50:19 51°21.89 3°6.575 81.2 11.8 79 10.7
2005-03-30 07:50:25 51°21.895 3°6.605 82.4 11.8 79 10.7
2005-03-30 07:50:29 51°21.897 3°6.625 81.6 11.8 76 10.7
2005-03-30 07:50:35 51°21.901 3°6.656 82.9 11.7 78 10.7
2005-03-30 07:50:40 51°21.905 3°6.681 83 11.7 79 10.7
2005-03-30 07:50:45 51°21.908 3°6.706 83.3 11.7 78 10.7
2005-03-30 07:50:49 51°21.91 3°6.727 83.2 11.7 78 10.7
2005-03-30 07:50:54 51°21.913 3°6.754 83.9 11.7 78 10.7
2005-03-30 07:51:00 51°21.916 3°6.782 83.8 11.7 78 10.7
2005-03-30 07:51:04 51°21.919 3°6.804 83.8 11.7 78 10.8
2005-03-30 07:51:10 51°21.923 3°6.832 83.5 11.5 79 10.7
2005-03-30 07:51:14 51°21.926 3°6.854 82.7 11.5 77 10.7
2005-03-30 07:51:20 51°21.93 3°6.881 82.2 11.5 77 10.7
2005-03-30 07:51:25 51°21.934 3°6.906 81.3 11.4 74 10.7
2005-03-30 07:51:29 51°21.937 3°6.926 81 11.4 78 10.8
2005-03-30 07:51:35 51°21.942 3°6.956 81.8 11.5 74 10.7
2005-03-30 07:51:38 51°21.945 3°6.972 81.3 11.4 76 10.8
2005-03-30 07:51:45 51°21.95 3°7.004 81.7 11.4 76 10.7
2005-03-30 07:51:49 51°21.953 3°7.026 81.9 11.3 77 10.8
2005-03-30 07:51:54 51°21.954 3°7.051 83.3 11.3 79 10.8
2005-03-30 07:51:59 51°21.956 3°7.076 84.9 11.3 81 10.8
2005-03-30 07:52:05 51°21.958 3°7.103 87.2 11.3 81 10.7
2005-03-30 07:52:10 51°21.959 3°7.128 88.5 11.3 81 10.8
2005-03-30 07:52:14 51°21.96 3°7.15 88.5 11.3 81 10.8
2005-03-30 07:52:19 51°21.961 3°7.175 89.4 11.2 88 10.8
2005-03-30 07:52:25 51°21.962 3°7.202 88.5 11.2 88 10.8
2005-03-30 07:52:29 51°21.963 3°7.225 89 11.3 84 10.9
2005-03-30 07:52:35 51°21.965 3°7.253 88.1 11.2 86 10.9
2005-03-30 07:52:39 51°21.966 3°7.274 88.2 11.2 86 10.9
2005-03-30 07:52:45 51°21.968 3°7.302 87.8 11.2 85 10.8
2005-03-30 07:52:50 51°21.969 3°7.326 87.5 11.2 85 10.8
2005-03-30 07:52:54 51°21.97 3°7.348 87.2 11.2 84 10.8
2005-03-30 07:52:59 51°21.971 3°7.374 87.2 11.2 84 10.9
2005-03-30 07:53:04 51°21.972 3°7.398 88.2 11.2 84 10.9
2005-03-30 07:53:09 51°21.973 3°7.421 87.9 11.3 85 10.9
2005-03-30 07:53:14 51°21.975 3°7.448 87.9 11.3 85 10.8
2005-03-30 07:53:19 51°21.976 3°7.471 87.8 11.2 85 10.8
2005-03-30 07:53:24 51°21.978 3°7.497 87 11.2 85 10.8
2005-03-30 07:53:29 51°21.979 3°7.519 86.8 11.2 86 10.9
2005-03-30 07:53:34 51°21.98 3°7.547 87.5 11.2 86 10.8
2005-03-30 07:53:39 51°21.982 3°7.57 87.2 11.2 84 10.8
2005-03-30 07:53:45 51°21.983 3°7.599 86.6 11.1 85 10.9
2005-03-30 07:53:49 51°21.984 3°7.618 87.1 11.1 85 10.9
2005-03-30 07:53:55 51°21.985 3°7.649 87.5 11.1 85 10.8
2005-03-30 07:53:58 51°21.986 3°7.665 87.5 11.2 85 10.8
2005-03-30 07:54:05 51°21.987 3°7.697 87.2 11.2 85 10.9
2005-03-30 07:54:10 51°21.988 3°7.722 87.1 11.1 85 10.9
2005-03-30 07:54:14 51°21.989 3°7.744 87.1 11.2 86 10.8
2005-03-30 07:54:20 51°21.991 3°7.772 86.8 11.2 86 10.8
2005-03-30 07:54:24 51°21.992 3°7.794 86.1 11.1 86 10.8
2005-03-30 07:54:29 51°21.993 3°7.819 87.2 11.2 86 10.7
2005-03-30 07:54:34 51°21.994 3°7.843 87.5 11.2 86 10.8
2005-03-30 07:54:39 51°21.994 3°7.869 86.9 11.2 86 10.8
2005-03-30 07:54:44 51°21.996 3°7.893 87.9 11.2 86 10.8
2005-03-30 07:54:49 51°21.996 3°7.918 87.6 11.2 86 10.8
2005-03-30 07:54:55 51°21.996 3°7.946 88.2 11.2 89 10.7
2005-03-30 07:54:58 51°21.997 3°7.962 87.7 11.2 88 10.7
2005-03-30 07:55:05 51°21.999 3°7.995 87.5 11.2 86 10.7
2005-03-30 07:55:09 51°21.999 3°8.015 87 11.2 86 10.7
2005-03-30 07:55:14 51°22.001 3°8.042 87.2 11.3 87 10.7
2005-03-30 07:55:19 51°22.001 3°8.065 86.5 11.2 87 10.7
2005-03-30 07:55:25 51°22.003 3°8.094 87 11.2 87 10.7
2005-03-30 07:55:29 51°22.004 3°8.116 86.3 11.3 85 10.7
2005-03-30 07:55:34 51°22.005 3°8.141 85.9 11.3 86 10.7
2005-03-30 07:55:39 51°22.007 3°8.166 85.5 11.3 83 10.8
2005-03-30 07:55:44 51°22.008 3°8.191 85.3 11.3 85 10.9
2005-03-30 07:55:50 51°22.009 3°8.219 85.4 11.3 85 10.8
2005-03-30 07:55:54 51°22.011 3°8.241 85.5 11.4 85 10.7
2005-03-30 07:56:00 51°22.012 3°8.269 84.9 11.3 83 10.6
2005-03-30 07:56:05 51°22.014 3°8.294 85.1 11.4 86 10.7
2005-03-30 07:56:09 51°22.015 3°8.316 85.2 11.4 86 10.7
2005-03-30 07:56:14 51°22.017 3°8.342 85.2 11.4 86 10.8
2005-03-30 07:56:20 51°22.018 3°8.369 85.1 11.4 84 10.7
2005-03-30 07:56:25 51°22.02 3°8.394 85.4 11.4 84 10.7
2005-03-30 07:56:29 51°22.021 3°8.417 85.6 11.4 84 10.7
2005-03-30 07:56:34 51°22.022 3°8.442 85.4 11.4 84 10.7
2005-03-30 07:56:39 51°22.024 3°8.465 85.1 11.4 84 10.7
2005-03-30 07:56:44 51°22.025 3°8.492 85.2 11.4 86 10.9
2005-03-30 07:56:49 51°22.026 3°8.517 85.6 11.4 86 10.8
2005-03-30 07:56:54 51°22.027 3°8.543 85.2 11.4 86 10.8
2005-03-30 07:57:00 51°22.029 3°8.57 85.6 11.4 86 10.9
2005-03-30 07:57:04 51°22.031 3°8.593 84.7 11.4 86 10.7
2005-03-30 07:57:10 51°22.032 3°8.62 85.2 11.4 84 10.8
2005-03-30 07:57:14 51°22.034 3°8.643 85.1 11.4 84 10.8
2005-03-30 07:57:18 51°22.035 3°8.663 85.2 11.5 84 10.9